Mee Memorial Hospital (09CA)
King City, CA
Field Elevation: 334
Lat: 36°12.33N  Long: 121°07.95W
CTAF/Unicom Freq: 120.8000
   
     For Weather-by-Phone, call 831-386-7456
Weather Advisories
2019-02-21   22:56 Z
Altimeter 29.69" Hg
Wind 360° @ 12 KT
Gusts 17 KT
Visibility 10 SM
Ceiling FEW052
Temperature 12° C (54° F)
Dewpoint -1° C (30° F)
Relative Humidity 40%
Density Altitude --
Condensation Altitude 7,000 feet
Wind and Runways
Indicated Runway = 27
Headwind = 0 kt
Crosswind = 12 kt
History
 
 
 
More Info
NOAA Forecast
 
 
About Us
Belfort Instrument
 
 
FAA Disclaimer: The data displayed is for advisory purposes only and is not to be used for flight planning or operations. For official data, please call 831-386-7456 to hear the current automated AWOS voice message.
  METAR 09CA 212256Z AUTO 36012G17KT 10 SM FEW052 12/M01 A2969